sensor_id;sensor_type;location;lat;lon;timestamp;P1;durP1;ratioP1;P2;durP2;ratioP2
31114;SDS011;17764;47.152;9.828;2023-01-30T00:00:59;14.27;;;9.83;;
31114;SDS011;17764;47.152;9.828;2023-01-30T00:03:26;16.47;;;9.97;;
31114;SDS011;17764;47.152;9.828;2023-01-30T00:05:52;13.50;;;9.37;;
31114;SDS011;17764;47.152;9.828;2023-01-30T00:08:18;14.00;;;9.10;;
31114;SDS011;17764;47.152;9.828;2023-01-30T00:10:44;14.57;;;9.27;;
31114;SDS011;17764;47.152;9.828;2023-01-30T00:13:11;15.90;;;9.57;;
31114;SDS011;17764;47.152;9.828;2023-01-30T00:15:38;15.07;;;9.57;;
31114;SDS011;17764;47.152;9.828;2023-01-30T00:18:05;16.70;;;10.10;;
31114;SDS011;17764;47.152;9.828;2023-01-30T00:20:31;15.50;;;9.47;;
31114;SDS011;17764;47.152;9.828;2023-01-30T00:22:57;17.20;;;10.23;;
31114;SDS011;17764;47.152;9.828;2023-01-30T00:25:23;16.77;;;9.83;;
31114;SDS011;17764;47.152;9.828;2023-01-30T00:27:49;14.87;;;9.67;;
31114;SDS011;17764;47.152;9.828;2023-01-30T00:30:15;12.67;;;8.97;;
31114;SDS011;17764;47.152;9.828;2023-01-30T00:32:41;14.57;;;9.53;;
31114;SDS011;17764;47.152;9.828;2023-01-30T00:35:07;14.73;;;9.30;;
31114;SDS011;17764;47.152;9.828;2023-01-30T00:37:33;14.37;;;9.10;;
31114;SDS011;17764;47.152;9.828;2023-01-30T00:39:59;13.20;;;8.90;;
31114;SDS011;17764;47.152;9.828;2023-01-30T00:42:25;14.43;;;8.63;;
31114;SDS011;17764;47.152;9.828;2023-01-30T00:45:11;15.20;;;9.57;;
31114;SDS011;17764;47.152;9.828;2023-01-30T00:47:56;13.50;;;9.00;;
31114;SDS011;17764;47.152;9.828;2023-01-30T00:50:23;11.13;;;7.77;;
31114;SDS011;17764;47.152;9.828;2023-01-30T00:52:49;13.83;;;8.37;;
31114;SDS011;17764;47.152;9.828;2023-01-30T00:55:15;13.27;;;8.80;;
31114;SDS011;17764;47.152;9.828;2023-01-30T00:57:43;13.10;;;8.37;;
31114;SDS011;17764;47.152;9.828;2023-01-30T01:00:09;12.93;;;9.17;;
31114;SDS011;17764;47.152;9.828;2023-01-30T01:02:35;13.33;;;9.17;;
31114;SDS011;17764;47.152;9.828;2023-01-30T01:05:01;13.10;;;8.57;;
31114;SDS011;17764;47.152;9.828;2023-01-30T01:07:27;12.53;;;8.53;;
31114;SDS011;17764;47.152;9.828;2023-01-30T01:09:53;12.43;;;8.33;;
31114;SDS011;17764;47.152;9.828;2023-01-30T01:12:18;12.33;;;7.50;;
31114;SDS011;17764;47.152;9.828;2023-01-30T01:14:44;11.93;;;7.90;;
31114;SDS011;17764;47.152;9.828;2023-01-30T01:17:10;11.97;;;7.77;;
31114;SDS011;17764;47.152;9.828;2023-01-30T01:19:36;10.17;;;6.90;;
31114;SDS011;17764;47.152;9.828;2023-01-30T01:22:02;10.27;;;7.30;;
31114;SDS011;17764;47.152;9.828;2023-01-30T01:24:27;12.00;;;7.90;;
31114;SDS011;17764;47.152;9.828;2023-01-30T01:26:53;12.10;;;8.03;;
31114;SDS011;17764;47.152;9.828;2023-01-30T01:29:19;11.57;;;7.70;;
31114;SDS011;17764;47.152;9.828;2023-01-30T01:31:45;10.20;;;7.00;;
31114;SDS011;17764;47.152;9.828;2023-01-30T01:34:11;12.77;;;7.43;;
31114;SDS011;17764;47.152;9.828;2023-01-30T01:36:37;10.83;;;6.90;;
31114;SDS011;17764;47.152;9.828;2023-01-30T01:39:03;12.17;;;7.67;;
31114;SDS011;17764;47.152;9.828;2023-01-30T01:41:29;11.27;;;7.70;;
31114;SDS011;17764;47.152;9.828;2023-01-30T01:46:29;10.93;;;7.03;;
31114;SDS011;17764;47.152;9.828;2023-01-30T01:48:56;10.23;;;7.17;;
31114;SDS011;17764;47.152;9.828;2023-01-30T01:51:34;10.97;;;6.40;;
31114;SDS011;17764;47.152;9.828;2023-01-30T01:54:02;10.40;;;6.90;;
31114;SDS011;17764;47.152;9.828;2023-01-30T01:56:31;11.53;;;7.03;;
31114;SDS011;17764;47.152;9.828;2023-01-30T01:59:00;11.87;;;6.47;;
31114;SDS011;17764;47.152;9.828;2023-01-30T02:01:27;10.80;;;5.97;;
31114;SDS011;17764;47.152;9.828;2023-01-30T02:03:55;7.93;;;6.20;;
31114;SDS011;17764;47.152;9.828;2023-01-30T02:06:22;8.33;;;6.20;;
31114;SDS011;17764;47.152;9.828;2023-01-30T02:08:54;7.90;;;5.60;;
31114;SDS011;17764;47.152;9.828;2023-01-30T02:13:52;9.53;;;6.47;;
31114;SDS011;17764;47.152;9.828;2023-01-30T02:16:18;9.27;;;6.17;;
31114;SDS011;17764;47.152;9.828;2023-01-30T02:18:44;9.77;;;6.00;;
31114;SDS011;17764;47.152;9.828;2023-01-30T02:29:45;8.77;;;6.23;;
31114;SDS011;17764;47.152;9.828;2023-01-30T02:34:54;8.23;;;5.57;;
31114;SDS011;17764;47.152;9.828;2023-01-30T02:42:43;8.50;;;5.50;;
31114;SDS011;17764;47.152;9.828;2023-01-30T02:47:56;7.73;;;5.20;;
31114;SDS011;17764;47.152;9.828;2023-01-30T02:50:33;7.13;;;4.90;;
31114;SDS011;17764;47.152;9.828;2023-01-30T02:53:03;6.33;;;4.50;;
31114;SDS011;17764;47.152;9.828;2023-01-30T02:55:29;7.13;;;4.87;;
31114;SDS011;17764;47.152;9.828;2023-01-30T02:57:55;7.97;;;5.27;;
31114;SDS011;17764;47.152;9.828;2023-01-30T03:00:22;5.97;;;4.67;;
31114;SDS011;17764;47.152;9.828;2023-01-30T03:05:56;6.63;;;4.47;;
31114;SDS011;17764;47.152;9.828;2023-01-30T03:11:12;6.37;;;4.10;;
31114;SDS011;17764;47.152;9.828;2023-01-30T03:16:12;6.90;;;4.63;;
31114;SDS011;17764;47.152;9.828;2023-01-30T03:18:41;5.87;;;3.73;;
31114;SDS011;17764;47.152;9.828;2023-01-30T03:21:07;8.77;;;4.63;;
31114;SDS011;17764;47.152;9.828;2023-01-30T03:23:33;5.80;;;4.23;;
31114;SDS011;17764;47.152;9.828;2023-01-30T03:25:59;7.80;;;5.43;;
31114;SDS011;17764;47.152;9.828;2023-01-30T03:28:26;10.50;;;5.23;;
31114;SDS011;17764;47.152;9.828;2023-01-30T03:30:52;8.03;;;4.60;;
31114;SDS011;17764;47.152;9.828;2023-01-30T03:33:18;7.97;;;5.27;;
31114;SDS011;17764;47.152;9.828;2023-01-30T03:35:44;9.20;;;5.23;;
31114;SDS011;17764;47.152;9.828;2023-01-30T03:38:10;8.57;;;5.73;;
31114;SDS011;17764;47.152;9.828;2023-01-30T03:40:37;8.43;;;5.37;;
31114;SDS011;17764;47.152;9.828;2023-01-30T03:43:03;5.93;;;4.23;;
31114;SDS011;17764;47.152;9.828;2023-01-30T03:45:29;8.93;;;5.30;;
31114;SDS011;17764;47.152;9.828;2023-01-30T03:47:55;6.37;;;4.43;;
31114;SDS011;17764;47.152;9.828;2023-01-30T03:50:21;4.83;;;4.13;;
31114;SDS011;17764;47.152;9.828;2023-01-30T03:52:47;4.57;;;3.30;;
31114;SDS011;17764;47.152;9.828;2023-01-30T03:55:15;6.67;;;4.13;;
31114;SDS011;17764;47.152;9.828;2023-01-30T03:57:41;7.83;;;4.20;;
31114;SDS011;17764;47.152;9.828;2023-01-30T04:00:07;5.97;;;3.60;;
31114;SDS011;17764;47.152;9.828;2023-01-30T04:02:33;5.73;;;3.73;;
31114;SDS011;17764;47.152;9.828;2023-01-30T04:04:59;6.47;;;3.57;;
31114;SDS011;17764;47.152;9.828;2023-01-30T04:07:27;5.30;;;3.50;;
31114;SDS011;17764;47.152;9.828;2023-01-30T04:09:53;7.23;;;4.27;;
31114;SDS011;17764;47.152;9.828;2023-01-30T04:12:19;6.27;;;3.47;;
31114;SDS011;17764;47.152;9.828;2023-01-30T04:14:45;6.80;;;4.17;;
31114;SDS011;17764;47.152;9.828;2023-01-30T04:17:12;5.10;;;3.37;;
31114;SDS011;17764;47.152;9.828;2023-01-30T04:19:38;5.40;;;3.43;;
31114;SDS011;17764;47.152;9.828;2023-01-30T04:22:03;5.57;;;3.10;;
31114;SDS011;17764;47.152;9.828;2023-01-30T04:24:29;4.80;;;3.50;;
31114;SDS011;17764;47.152;9.828;2023-01-30T04:26:57;5.03;;;2.73;;
31114;SDS011;17764;47.152;9.828;2023-01-30T04:29:23;6.10;;;3.37;;
31114;SDS011;17764;47.152;9.828;2023-01-30T04:31:49;5.83;;;3.30;;
31114;SDS011;17764;47.152;9.828;2023-01-30T04:34:15;4.47;;;3.27;;
31114;SDS011;17764;47.152;9.828;2023-01-30T04:36:41;5.03;;;3.70;;
31114;SDS011;17764;47.152;9.828;2023-01-30T04:39:09;4.60;;;3.30;;
31114;SDS011;17764;47.152;9.828;2023-01-30T04:41:35;4.50;;;3.13;;
31114;SDS011;17764;47.152;9.828;2023-01-30T04:44:01;5.97;;;3.83;;
31114;SDS011;17764;47.152;9.828;2023-01-30T04:46:27;4.20;;;3.00;;
31114;SDS011;17764;47.152;9.828;2023-01-30T04:48:53;4.63;;;3.10;;
31114;SDS011;17764;47.152;9.828;2023-01-30T04:51:19;6.57;;;3.27;;
31114;SDS011;17764;47.152;9.828;2023-01-30T04:53:44;5.47;;;3.73;;
31114;SDS011;17764;47.152;9.828;2023-01-30T04:56:10;6.13;;;3.80;;
31114;SDS011;17764;47.152;9.828;2023-01-30T04:58:36;6.43;;;4.80;;
31114;SDS011;17764;47.152;9.828;2023-01-30T05:01:12;7.87;;;4.47;;
31114;SDS011;17764;47.152;9.828;2023-01-30T05:03:39;7.67;;;3.93;;
31114;SDS011;17764;47.152;9.828;2023-01-30T05:06:05;6.27;;;3.90;;
31114;SDS011;17764;47.152;9.828;2023-01-30T05:08:31;5.87;;;4.00;;
31114;SDS011;17764;47.152;9.828;2023-01-30T05:10:57;4.80;;;3.47;;
31114;SDS011;17764;47.152;9.828;2023-01-30T05:13:23;4.50;;;3.27;;
31114;SDS011;17764;47.152;9.828;2023-01-30T05:15:49;3.97;;;2.87;;
31114;SDS011;17764;47.152;9.828;2023-01-30T05:18:15;5.20;;;3.27;;
31114;SDS011;17764;47.152;9.828;2023-01-30T05:20:41;8.67;;;4.40;;
31114;SDS011;17764;47.152;9.828;2023-01-30T05:23:06;8.07;;;4.10;;
31114;SDS011;17764;47.152;9.828;2023-01-30T05:25:32;5.47;;;3.57;;
31114;SDS011;17764;47.152;9.828;2023-01-30T05:27:58;5.80;;;3.80;;
31114;SDS011;17764;47.152;9.828;2023-01-30T05:30:24;6.30;;;4.17;;
31114;SDS011;17764;47.152;9.828;2023-01-30T05:32:50;5.47;;;4.30;;
31114;SDS011;17764;47.152;9.828;2023-01-30T05:35:16;6.60;;;4.30;;
31114;SDS011;17764;47.152;9.828;2023-01-30T05:37:42;6.33;;;4.07;;
31114;SDS011;17764;47.152;9.828;2023-01-30T05:40:08;5.57;;;4.20;;
31114;SDS011;17764;47.152;9.828;2023-01-30T05:42:34;5.40;;;3.90;;
31114;SDS011;17764;47.152;9.828;2023-01-30T05:45:00;5.63;;;3.70;;
31114;SDS011;17764;47.152;9.828;2023-01-30T05:47:26;5.93;;;3.77;;
31114;SDS011;17764;47.152;9.828;2023-01-30T05:49:52;4.73;;;3.33;;
31114;SDS011;17764;47.152;9.828;2023-01-30T05:52:17;5.50;;;3.40;;
31114;SDS011;17764;47.152;9.828;2023-01-30T05:54:43;6.27;;;3.40;;
31114;SDS011;17764;47.152;9.828;2023-01-30T05:57:09;4.43;;;3.10;;
31114;SDS011;17764;47.152;9.828;2023-01-30T05:59:35;3.13;;;2.47;;
31114;SDS011;17764;47.152;9.828;2023-01-30T06:02:01;3.63;;;2.70;;
31114;SDS011;17764;47.152;9.828;2023-01-30T06:04:27;7.00;;;3.50;;
31114;SDS011;17764;47.152;9.828;2023-01-30T06:06:52;5.00;;;3.60;;
31114;SDS011;17764;47.152;9.828;2023-01-30T06:09:18;5.57;;;3.80;;
31114;SDS011;17764;47.152;9.828;2023-01-30T06:11:44;6.97;;;4.20;;
31114;SDS011;17764;47.152;9.828;2023-01-30T06:14:10;7.87;;;4.23;;
31114;SDS011;17764;47.152;9.828;2023-01-30T06:16:36;6.73;;;4.50;;
31114;SDS011;17764;47.152;9.828;2023-01-30T06:19:02;9.77;;;5.17;;
31114;SDS011;17764;47.152;9.828;2023-01-30T06:21:28;9.40;;;5.53;;
31114;SDS011;17764;47.152;9.828;2023-01-30T06:23:55;9.97;;;5.27;;
31114;SDS011;17764;47.152;9.828;2023-01-30T06:26:21;9.07;;;5.60;;
31114;SDS011;17764;47.152;9.828;2023-01-30T06:28:47;8.67;;;5.77;;
31114;SDS011;17764;47.152;9.828;2023-01-30T06:31:14;11.00;;;5.73;;
31114;SDS011;17764;47.152;9.828;2023-01-30T06:33:42;9.37;;;6.03;;
31114;SDS011;17764;47.152;9.828;2023-01-30T06:36:08;10.33;;;6.03;;
31114;SDS011;17764;47.152;9.828;2023-01-30T06:38:34;10.97;;;6.60;;
31114;SDS011;17764;47.152;9.828;2023-01-30T06:41:00;10.23;;;7.10;;
31114;SDS011;17764;47.152;9.828;2023-01-30T06:43:26;10.87;;;5.93;;
31114;SDS011;17764;47.152;9.828;2023-01-30T06:45:52;12.07;;;6.53;;
31114;SDS011;17764;47.152;9.828;2023-01-30T06:48:18;10.27;;;5.77;;
31114;SDS011;17764;47.152;9.828;2023-01-30T06:50:44;9.70;;;6.17;;
31114;SDS011;17764;47.152;9.828;2023-01-30T06:53:11;8.97;;;5.67;;
31114;SDS011;17764;47.152;9.828;2023-01-30T06:55:38;9.53;;;5.80;;
31114;SDS011;17764;47.152;9.828;2023-01-30T06:58:08;9.93;;;5.93;;
31114;SDS011;17764;47.152;9.828;2023-01-30T07:00:34;8.57;;;4.47;;
31114;SDS011;17764;47.152;9.828;2023-01-30T07:03:03;6.30;;;3.87;;
31114;SDS011;17764;47.152;9.828;2023-01-30T07:05:29;5.00;;;3.33;;
31114;SDS011;17764;47.152;9.828;2023-01-30T07:07:55;5.33;;;3.30;;
31114;SDS011;17764;47.152;9.828;2023-01-30T07:10:22;5.13;;;3.03;;
31114;SDS011;17764;47.152;9.828;2023-01-30T07:12:50;4.47;;;2.73;;
31114;SDS011;17764;47.152;9.828;2023-01-30T07:15:17;3.87;;;2.70;;
31114;SDS011;17764;47.152;9.828;2023-01-30T07:17:42;3.30;;;2.13;;
31114;SDS011;17764;47.152;9.828;2023-01-30T07:20:08;4.00;;;2.67;;
31114;SDS011;17764;47.152;9.828;2023-01-30T07:22:35;4.27;;;2.70;;
31114;SDS011;17764;47.152;9.828;2023-01-30T07:25:01;4.60;;;2.93;;
31114;SDS011;17764;47.152;9.828;2023-01-30T07:27:27;4.17;;;2.93;;
31114;SDS011;17764;47.152;9.828;2023-01-30T07:29:53;5.03;;;3.53;;
31114;SDS011;17764;47.152;9.828;2023-01-30T07:32:19;6.03;;;3.40;;
31114;SDS011;17764;47.152;9.828;2023-01-30T07:34:45;4.80;;;3.10;;
31114;SDS011;17764;47.152;9.828;2023-01-30T07:37:11;5.43;;;3.60;;
31114;SDS011;17764;47.152;9.828;2023-01-30T07:39:37;5.33;;;3.50;;
31114;SDS011;17764;47.152;9.828;2023-01-30T07:42:05;5.30;;;3.73;;
31114;SDS011;17764;47.152;9.828;2023-01-30T07:44:31;5.13;;;3.37;;
31114;SDS011;17764;47.152;9.828;2023-01-30T07:46:58;5.43;;;3.40;;
31114;SDS011;17764;47.152;9.828;2023-01-30T07:49:24;4.83;;;3.20;;
31114;SDS011;17764;47.152;9.828;2023-01-30T07:51:50;3.50;;;3.00;;
31114;SDS011;17764;47.152;9.828;2023-01-30T07:54:16;4.63;;;3.20;;
31114;SDS011;17764;47.152;9.828;2023-01-30T07:56:44;4.87;;;3.57;;
31114;SDS011;17764;47.152;9.828;2023-01-30T07:59:10;6.13;;;3.53;;
31114;SDS011;17764;47.152;9.828;2023-01-30T08:01:36;6.90;;;4.07;;
31114;SDS011;17764;47.152;9.828;2023-01-30T08:04:02;19.57;;;9.27;;
31114;SDS011;17764;47.152;9.828;2023-01-30T08:06:28;21.90;;;12.10;;
31114;SDS011;17764;47.152;9.828;2023-01-30T08:08:54;17.97;;;10.50;;
31114;SDS011;17764;47.152;9.828;2023-01-30T08:11:20;12.83;;;7.87;;
31114;SDS011;17764;47.152;9.828;2023-01-30T08:13:46;14.90;;;7.57;;
31114;SDS011;17764;47.152;9.828;2023-01-30T08:16:12;11.23;;;6.57;;
31114;SDS011;17764;47.152;9.828;2023-01-30T08:18:38;10.47;;;6.40;;
31114;SDS011;17764;47.152;9.828;2023-01-30T08:21:04;10.70;;;6.10;;
31114;SDS011;17764;47.152;9.828;2023-01-30T08:23:31;7.70;;;5.23;;
31114;SDS011;17764;47.152;9.828;2023-01-30T08:26:01;8.33;;;5.07;;
31114;SDS011;17764;47.152;9.828;2023-01-30T08:28:27;7.77;;;4.97;;
31114;SDS011;17764;47.152;9.828;2023-01-30T08:30:53;7.53;;;4.50;;
31114;SDS011;17764;47.152;9.828;2023-01-30T08:33:22;11.03;;;4.73;;
31114;SDS011;17764;47.152;9.828;2023-01-30T08:35:49;6.63;;;4.20;;
31114;SDS011;17764;47.152;9.828;2023-01-30T08:38:15;6.30;;;4.30;;
31114;SDS011;17764;47.152;9.828;2023-01-30T08:40:41;10.70;;;5.10;;
31114;SDS011;17764;47.152;9.828;2023-01-30T08:43:07;9.43;;;6.13;;
31114;SDS011;17764;47.152;9.828;2023-01-30T08:45:33;9.23;;;4.70;;
31114;SDS011;17764;47.152;9.828;2023-01-30T08:48:00;5.87;;;4.33;;
31114;SDS011;17764;47.152;9.828;2023-01-30T08:50:26;8.07;;;4.60;;
31114;SDS011;17764;47.152;9.828;2023-01-30T08:52:52;7.63;;;5.00;;
31114;SDS011;17764;47.152;9.828;2023-01-30T08:55:19;5.33;;;4.03;;
31114;SDS011;17764;47.152;9.828;2023-01-30T08:57:45;8.77;;;5.23;;
31114;SDS011;17764;47.152;9.828;2023-01-30T09:00:11;7.97;;;4.77;;
31114;SDS011;17764;47.152;9.828;2023-01-30T09:02:37;7.73;;;4.43;;
31114;SDS011;17764;47.152;9.828;2023-01-30T09:05:04;7.13;;;4.00;;
31114;SDS011;17764;47.152;9.828;2023-01-30T09:07:29;7.43;;;4.57;;
31114;SDS011;17764;47.152;9.828;2023-01-30T09:09:55;6.33;;;4.07;;
31114;SDS011;17764;47.152;9.828;2023-01-30T09:12:21;8.80;;;4.03;;
31114;SDS011;17764;47.152;9.828;2023-01-30T09:14:47;7.33;;;4.33;;
31114;SDS011;17764;47.152;9.828;2023-01-30T09:17:13;5.90;;;3.90;;
31114;SDS011;17764;47.152;9.828;2023-01-30T09:19:39;5.70;;;4.07;;
31114;SDS011;17764;47.152;9.828;2023-01-30T09:22:05;7.23;;;4.57;;
31114;SDS011;17764;47.152;9.828;2023-01-30T09:24:33;6.80;;;4.10;;
31114;SDS011;17764;47.152;9.828;2023-01-30T09:26:59;6.20;;;3.93;;
31114;SDS011;17764;47.152;9.828;2023-01-30T09:29:25;5.97;;;4.07;;
31114;SDS011;17764;47.152;9.828;2023-01-30T09:31:52;8.20;;;4.80;;
31114;SDS011;17764;47.152;9.828;2023-01-30T09:34:20;7.23;;;4.47;;
31114;SDS011;17764;47.152;9.828;2023-01-30T09:36:51;7.97;;;3.93;;
31114;SDS011;17764;47.152;9.828;2023-01-30T09:39:17;6.30;;;4.10;;
31114;SDS011;17764;47.152;9.828;2023-01-30T09:47:06;8.10;;;4.03;;
31114;SDS011;17764;47.152;9.828;2023-01-30T09:49:54;6.03;;;4.17;;
31114;SDS011;17764;47.152;9.828;2023-01-30T09:54:52;8.97;;;4.60;;
31114;SDS011;17764;47.152;9.828;2023-01-30T09:57:20;8.70;;;4.57;;
31114;SDS011;17764;47.152;9.828;2023-01-30T09:59:54;10.30;;;5.13;;
31114;SDS011;17764;47.152;9.828;2023-01-30T10:05:00;8.50;;;5.13;;
31114;SDS011;17764;47.152;9.828;2023-01-30T10:07:31;9.13;;;5.37;;
31114;SDS011;17764;47.152;9.828;2023-01-30T10:10:23;8.83;;;5.57;;
31114;SDS011;17764;47.152;9.828;2023-01-30T10:18:39;12.10;;;6.67;;
31114;SDS011;17764;47.152;9.828;2023-01-30T10:26:22;17.93;;;7.60;;
31114;SDS011;17764;47.152;9.828;2023-01-30T10:31:17;14.00;;;7.97;;
31114;SDS011;17764;47.152;9.828;2023-01-30T10:33:50;13.70;;;7.87;;
31114;SDS011;17764;47.152;9.828;2023-01-30T10:36:20;16.37;;;8.37;;
31114;SDS011;17764;47.152;9.828;2023-01-30T10:38:48;14.60;;;8.17;;
31114;SDS011;17764;47.152;9.828;2023-01-30T10:44:01;14.03;;;7.90;;
31114;SDS011;17764;47.152;9.828;2023-01-30T10:46:30;14.80;;;7.97;;
31114;SDS011;17764;47.152;9.828;2023-01-30T11:02:34;11.83;;;7.07;;
31114;SDS011;17764;47.152;9.828;2023-01-30T11:05:23;11.67;;;7.17;;
31114;SDS011;17764;47.152;9.828;2023-01-30T11:07:51;8.40;;;6.03;;
31114;SDS011;17764;47.152;9.828;2023-01-30T11:10:20;10.77;;;6.10;;
31114;SDS011;17764;47.152;9.828;2023-01-30T11:12:46;10.27;;;6.93;;
31114;SDS011;17764;47.152;9.828;2023-01-30T11:15:12;10.03;;;7.03;;
31114;SDS011;17764;47.152;9.828;2023-01-30T11:17:38;10.47;;;7.03;;
31114;SDS011;17764;47.152;9.828;2023-01-30T11:20:16;11.10;;;6.93;;
31114;SDS011;17764;47.152;9.828;2023-01-30T11:22:48;15.17;;;7.67;;
31114;SDS011;17764;47.152;9.828;2023-01-30T11:25:18;9.60;;;6.47;;
31114;SDS011;17764;47.152;9.828;2023-01-30T11:27:53;9.70;;;6.30;;
31114;SDS011;17764;47.152;9.828;2023-01-30T11:30:20;9.93;;;6.73;;
31114;SDS011;17764;47.152;9.828;2023-01-30T11:32:47;15.93;;;7.40;;
31114;SDS011;17764;47.152;9.828;2023-01-30T11:37:43;12.30;;;7.00;;
31114;SDS011;17764;47.152;9.828;2023-01-30T11:43:24;12.43;;;7.53;;
31114;SDS011;17764;47.152;9.828;2023-01-30T11:45:38;11.63;;;6.83;;
31114;SDS011;17764;47.152;9.828;2023-01-30T11:48:05;11.77;;;6.43;;
31114;SDS011;17764;47.152;9.828;2023-01-30T11:50:41;9.07;;;6.03;;
31114;SDS011;17764;47.152;9.828;2023-01-30T11:55:57;11.17;;;6.17;;
31114;SDS011;17764;47.152;9.828;2023-01-30T11:58:28;9.00;;;5.70;;
31114;SDS011;17764;47.152;9.828;2023-01-30T12:00:54;7.97;;;5.73;;
31114;SDS011;17764;47.152;9.828;2023-01-30T12:03:21;14.00;;;5.90;;
31114;SDS011;17764;47.152;9.828;2023-01-30T12:05:49;10.40;;;6.23;;
31114;SDS011;17764;47.152;9.828;2023-01-30T12:10:46;7.73;;;5.37;;
31114;SDS011;17764;47.152;9.828;2023-01-30T12:13:22;9.23;;;5.80;;
31114;SDS011;17764;47.152;9.828;2023-01-30T12:15:50;7.43;;;5.57;;
31114;SDS011;17764;47.152;9.828;2023-01-30T12:18:43;7.67;;;5.23;;
31114;SDS011;17764;47.152;9.828;2023-01-30T12:23:43;6.97;;;5.20;;
31114;SDS011;17764;47.152;9.828;2023-01-30T12:26:19;18.27;;;6.47;;
31114;SDS011;17764;47.152;9.828;2023-01-30T12:31:42;7.90;;;5.47;;
31114;SDS011;17764;47.152;9.828;2023-01-30T12:34:12;10.50;;;5.50;;
31114;SDS011;17764;47.152;9.828;2023-01-30T12:55:20;5.53;;;4.27;;
31114;SDS011;17764;47.152;9.828;2023-01-30T13:00:31;7.87;;;5.00;;
31114;SDS011;17764;47.152;9.828;2023-01-30T13:06:09;5.80;;;4.50;;
31114;SDS011;17764;47.152;9.828;2023-01-30T13:16:47;6.17;;;3.67;;
31114;SDS011;17764;47.152;9.828;2023-01-30T13:24:38;5.67;;;3.40;;
31114;SDS011;17764;47.152;9.828;2023-01-30T13:27:09;5.40;;;3.70;;
31114;SDS011;17764;47.152;9.828;2023-01-30T13:29:42;5.77;;;3.77;;
31114;SDS011;17764;47.152;9.828;2023-01-30T13:32:26;6.47;;;3.87;;
31114;SDS011;17764;47.152;9.828;2023-01-30T13:34:55;5.00;;;3.80;;
31114;SDS011;17764;47.152;9.828;2023-01-30T13:37:22;5.80;;;3.97;;
31114;SDS011;17764;47.152;9.828;2023-01-30T13:39:50;7.03;;;3.90;;
31114;SDS011;17764;47.152;9.828;2023-01-30T13:44:54;6.63;;;4.10;;
31114;SDS011;17764;47.152;9.828;2023-01-30T13:50:33;7.13;;;4.03;;
31114;SDS011;17764;47.152;9.828;2023-01-30T13:52:40;10.13;;;4.03;;
31114;SDS011;17764;47.152;9.828;2023-01-30T14:00:34;8.00;;;4.57;;
31114;SDS011;17764;47.152;9.828;2023-01-30T14:08:21;6.60;;;4.73;;
31114;SDS011;17764;47.152;9.828;2023-01-30T14:10:49;10.30;;;4.60;;
31114;SDS011;17764;47.152;9.828;2023-01-30T14:13:15;7.17;;;4.27;;
31114;SDS011;17764;47.152;9.828;2023-01-30T14:15:55;6.73;;;4.27;;
31114;SDS011;17764;47.152;9.828;2023-01-30T14:18:23;6.93;;;4.10;;
31114;SDS011;17764;47.152;9.828;2023-01-30T14:20:50;6.83;;;3.97;;
31114;SDS011;17764;47.152;9.828;2023-01-30T14:23:27;11.20;;;4.87;;
31114;SDS011;17764;47.152;9.828;2023-01-30T14:25:54;9.83;;;4.63;;
31114;SDS011;17764;47.152;9.828;2023-01-30T14:30:50;7.50;;;4.63;;
31114;SDS011;17764;47.152;9.828;2023-01-30T14:36:26;7.83;;;4.53;;
31114;SDS011;17764;47.152;9.828;2023-01-30T14:38:35;8.60;;;4.80;;
31114;SDS011;17764;47.152;9.828;2023-01-30T14:53:55;6.03;;;4.30;;
31114;SDS011;17764;47.152;9.828;2023-01-30T15:02:01;7.80;;;4.03;;
31114;SDS011;17764;47.152;9.828;2023-01-30T15:04:30;12.30;;;5.00;;
31114;SDS011;17764;47.152;9.828;2023-01-30T15:07:04;9.17;;;4.20;;
31114;SDS011;17764;47.152;9.828;2023-01-30T15:09:34;8.57;;;4.03;;
31114;SDS011;17764;47.152;9.828;2023-01-30T15:15:10;10.67;;;4.30;;
31114;SDS011;17764;47.152;9.828;2023-01-30T15:23:07;7.10;;;4.97;;
31114;SDS011;17764;47.152;9.828;2023-01-30T15:28:54;9.80;;;5.23;;
31114;SDS011;17764;47.152;9.828;2023-01-30T15:31:37;8.90;;;5.23;;
31114;SDS011;17764;47.152;9.828;2023-01-30T15:34:15;9.47;;;5.53;;
31114;SDS011;17764;47.152;9.828;2023-01-30T15:36:43;8.97;;;5.87;;
31114;SDS011;17764;47.152;9.828;2023-01-30T15:39:20;9.97;;;5.47;;
31114;SDS011;17764;47.152;9.828;2023-01-30T15:41:50;9.87;;;5.30;;
31114;SDS011;17764;47.152;9.828;2023-01-30T15:49:51;8.50;;;5.47;;
31114;SDS011;17764;47.152;9.828;2023-01-30T15:52:18;7.30;;;5.33;;
31114;SDS011;17764;47.152;9.828;2023-01-30T15:54:49;8.20;;;4.87;;
31114;SDS011;17764;47.152;9.828;2023-01-30T15:57:19;7.23;;;4.63;;
31114;SDS011;17764;47.152;9.828;2023-01-30T15:59:47;7.50;;;4.53;;
31114;SDS011;17764;47.152;9.828;2023-01-30T16:02:24;7.97;;;4.97;;
31114;SDS011;17764;47.152;9.828;2023-01-30T16:05:02;7.00;;;4.63;;
31114;SDS011;17764;47.152;9.828;2023-01-30T16:07:28;7.20;;;4.73;;
31114;SDS011;17764;47.152;9.828;2023-01-30T16:09:54;10.00;;;5.50;;
31114;SDS011;17764;47.152;9.828;2023-01-30T16:12:24;7.43;;;5.23;;
31114;SDS011;17764;47.152;9.828;2023-01-30T16:14:50;9.20;;;5.23;;
31114;SDS011;17764;47.152;9.828;2023-01-30T16:17:21;7.77;;;4.57;;
31114;SDS011;17764;47.152;9.828;2023-01-30T16:19:48;6.97;;;4.57;;
31114;SDS011;17764;47.152;9.828;2023-01-30T16:22:14;5.23;;;3.67;;
31114;SDS011;17764;47.152;9.828;2023-01-30T16:24:42;6.30;;;4.37;;
31114;SDS011;17764;47.152;9.828;2023-01-30T16:27:11;7.07;;;4.33;;
31114;SDS011;17764;47.152;9.828;2023-01-30T16:29:48;6.47;;;3.80;;
31114;SDS011;17764;47.152;9.828;2023-01-30T16:32:16;6.27;;;4.03;;
31114;SDS011;17764;47.152;9.828;2023-01-30T16:34:47;6.87;;;4.07;;
31114;SDS011;17764;47.152;9.828;2023-01-30T16:39:57;5.80;;;3.70;;
31114;SDS011;17764;47.152;9.828;2023-01-30T16:42:28;7.27;;;4.60;;
31114;SDS011;17764;47.152;9.828;2023-01-30T16:45:18;5.67;;;4.37;;
31114;SDS011;17764;47.152;9.828;2023-01-30T16:51:10;6.83;;;4.40;;
31114;SDS011;17764;47.152;9.828;2023-01-30T16:53:33;7.67;;;4.63;;
31114;SDS011;17764;47.152;9.828;2023-01-30T16:56:03;6.80;;;5.13;;
31114;SDS011;17764;47.152;9.828;2023-01-30T16:58:32;7.93;;;4.90;;
31114;SDS011;17764;47.152;9.828;2023-01-30T17:01:03;8.17;;;5.17;;
31114;SDS011;17764;47.152;9.828;2023-01-30T17:03:30;6.57;;;4.63;;
31114;SDS011;17764;47.152;9.828;2023-01-30T17:06:00;7.40;;;4.90;;
31114;SDS011;17764;47.152;9.828;2023-01-30T17:11:04;8.40;;;5.23;;
31114;SDS011;17764;47.152;9.828;2023-01-30T17:13:34;8.97;;;5.97;;
31114;SDS011;17764;47.152;9.828;2023-01-30T17:18:51;8.13;;;5.57;;
31114;SDS011;17764;47.152;9.828;2023-01-30T17:21:17;10.50;;;5.93;;
31114;SDS011;17764;47.152;9.828;2023-01-30T17:23:46;10.80;;;7.00;;
31114;SDS011;17764;47.152;9.828;2023-01-30T17:26:13;12.13;;;6.23;;
31114;SDS011;17764;47.152;9.828;2023-01-30T17:28:40;10.03;;;5.97;;
31114;SDS011;17764;47.152;9.828;2023-01-30T17:31:13;8.87;;;5.70;;
31114;SDS011;17764;47.152;9.828;2023-01-30T17:33:39;9.73;;;6.03;;
31114;SDS011;17764;47.152;9.828;2023-01-30T17:36:08;11.07;;;5.90;;
31114;SDS011;17764;47.152;9.828;2023-01-30T17:38:47;10.37;;;6.13;;
31114;SDS011;17764;47.152;9.828;2023-01-30T17:41:16;9.17;;;5.83;;
31114;SDS011;17764;47.152;9.828;2023-01-30T17:43:43;7.20;;;5.00;;
31114;SDS011;17764;47.152;9.828;2023-01-30T17:46:10;10.10;;;5.60;;
31114;SDS011;17764;47.152;9.828;2023-01-30T17:48:36;9.27;;;5.17;;
31114;SDS011;17764;47.152;9.828;2023-01-30T17:51:02;8.13;;;5.67;;
31114;SDS011;17764;47.152;9.828;2023-01-30T17:53:28;7.80;;;5.17;;
31114;SDS011;17764;47.152;9.828;2023-01-30T17:55:54;8.23;;;5.50;;
31114;SDS011;17764;47.152;9.828;2023-01-30T17:58:22;8.63;;;5.50;;
31114;SDS011;17764;47.152;9.828;2023-01-30T18:00:48;7.53;;;5.20;;
31114;SDS011;17764;47.152;9.828;2023-01-30T18:03:13;8.37;;;5.03;;